< < Back
Terminal Aerodrome Forecast


Current Version              Previous Versions:   1  2  3  4  5  6  7  8  9  

Terminal Aerodrome Forecast

500
FTUS42 KTAE 242320
TAFVLD
TAF
KVLD 242320Z 2500/2524 11005KT P6SM FEW080 SCT250
     FM251500 13005KT P6SM FEW050=

Latest METAR

327
SAUS70 KWBC 250056
MTRVLD
METAR KVLD 250053Z 00000KT 10SM CLR 24/17 A3011 RMK AO2 SLP204
T02390172


USA.gov is the U.S. government's official web portal to all federal, state and local government web resources and services.